Crookstown, Ireland
Current Conditions -  °F | °C
As of 11:00 AM on Saturday 01 Nov 2014 (Local Time) from EICK Reporting Station
Light Rain Light Rain  
Wind Chill: 54°   Ceiling: 300
Heat Index: 54°   Visibility: 1.2mi
Dew Point: 54°   Wind: 22mph
Humidity: 100%   Direction: 180°S
Pressure: 29.65"   Gusts: 36mph
Location:  51.84°N, 8.83°W
Report Text: EICK 011100Z 18019G31KT 2000 -RA OVC003 12/12 Q1004 NOSIG
Loading
Personal Weather Stations






























Interactive Weather Map
Tropical Storm Tracking
New forecast layout! Learn more

10-Day Weather Forecast

Advertisements
Track Severe Weather on mobile